Strona główna
METAR-TAF:

METAR-TAF

Lotnisko :

Kanoya, Japonia

Szerokość geograficzna: 31-22N, Długość geograficzna: 130-50E, wysokość: 65 m

Aktualna obserwacja pogody

Raport powstał 16 godziny i 18 minut temu, godzina 03:32 UTC
Wiatr 10 kt od zachód, zmienny między południowo-południowy zachód i północny zachód
Temperatura 17°C
Wilgotność 45%
Ciśnienie 1022 hPa
Widzialność 10 km lub więcej
Mało chmury na wysokości 3000 ft

METAR: RJFY 200332Z 28010KT 210V310 9999 FEW030 17/05 Q1022 RMK 1CU030 A3020

czas: 04:50 (19:50 UTC)


TAF: brakujący

Obserwacja i prognoza pogody dla ponad 4000 lotnisk (raport METAR i TAF).

Dostępne stacje oznaczono żółtymi i czerwonymi punktami na mapie.

Najedź kursorem aby zobaczyć nazwę stacji.

Kliknij aby zobaczyć obserwacje i prognozy pogody.

Aby zmienić mapę: kliknij na zielony przycisk z czarnym krzyżykiem, aby powiększyć; na zielony przycisk z myślnikiem, aby pomniejszyć; na zielone strzałki, aby przejść do map sąsiednich.


METAR-TAF: